sensor_id;sensor_type;location;lat;lon;timestamp;P1;durP1;ratioP1;P2;durP2;ratioP2
37049;SDS011;22958;51.232;6.826;2023-08-08T00:00:03;11.50;;;1.90;;
37049;SDS011;22958;51.232;6.826;2023-08-08T00:02:30;9.60;;;1.95;;
37049;SDS011;22958;51.232;6.826;2023-08-08T00:04:56;9.75;;;2.13;;
37049;SDS011;22958;51.232;6.826;2023-08-08T00:07:21;8.60;;;2.17;;
37049;SDS011;22958;51.232;6.826;2023-08-08T00:09:47;4.87;;;1.73;;
37049;SDS011;22958;51.232;6.826;2023-08-08T00:12:12;2.67;;;1.83;;
37049;SDS011;22958;51.232;6.826;2023-08-08T00:14:38;5.40;;;1.97;;
37049;SDS011;22958;51.232;6.826;2023-08-08T00:17:04;7.63;;;2.17;;
37049;SDS011;22958;51.232;6.826;2023-08-08T00:19:29;8.47;;;2.13;;
37049;SDS011;22958;51.232;6.826;2023-08-08T00:21:55;7.93;;;2.20;;
37049;SDS011;22958;51.232;6.826;2023-08-08T00:24:20;8.27;;;2.30;;
37049;SDS011;22958;51.232;6.826;2023-08-08T00:26:46;4.97;;;1.90;;
37049;SDS011;22958;51.232;6.826;2023-08-08T00:29:11;7.47;;;2.60;;
37049;SDS011;22958;51.232;6.826;2023-08-08T00:31:37;4.13;;;2.10;;
37049;SDS011;22958;51.232;6.826;2023-08-08T00:34:02;4.37;;;2.40;;
37049;SDS011;22958;51.232;6.826;2023-08-08T00:36:28;6.77;;;2.20;;
37049;SDS011;22958;51.232;6.826;2023-08-08T00:38:53;11.93;;;2.30;;
37049;SDS011;22958;51.232;6.826;2023-08-08T00:41:19;5.10;;;2.20;;
37049;SDS011;22958;51.232;6.826;2023-08-08T00:43:45;9.67;;;2.37;;
37049;SDS011;22958;51.232;6.826;2023-08-08T00:46:10;3.50;;;2.20;;
37049;SDS011;22958;51.232;6.826;2023-08-08T00:48:36;8.13;;;2.25;;
37049;SDS011;22958;51.232;6.826;2023-08-08T00:51:02;10.73;;;2.43;;
37049;SDS011;22958;51.232;6.826;2023-08-08T00:53:28;5.63;;;2.30;;
37049;SDS011;22958;51.232;6.826;2023-08-08T00:55:56;8.25;;;2.85;;
37049;SDS011;22958;51.232;6.826;2023-08-08T00:58:23;5.30;;;3.42;;
37049;SDS011;22958;51.232;6.826;2023-08-08T01:00:48;6.53;;;2.60;;
37049;SDS011;22958;51.232;6.826;2023-08-08T01:03:14;8.17;;;2.50;;
37049;SDS011;22958;51.232;6.826;2023-08-08T01:05:51;7.93;;;3.07;;
37049;SDS011;22958;51.232;6.826;2023-08-08T01:08:25;5.40;;;2.60;;
37049;SDS011;22958;51.232;6.826;2023-08-08T01:10:58;10.73;;;3.08;;
37049;SDS011;22958;51.232;6.826;2023-08-08T01:13:23;13.93;;;3.37;;
37049;SDS011;22958;51.232;6.826;2023-08-08T01:15:51;7.63;;;2.97;;
37049;SDS011;22958;51.232;6.826;2023-08-08T01:18:18;6.35;;;2.85;;
37049;SDS011;22958;51.232;6.826;2023-08-08T01:20:44;10.00;;;2.90;;
37049;SDS011;22958;51.232;6.826;2023-08-08T01:23:13;7.40;;;3.10;;
37049;SDS011;22958;51.232;6.826;2023-08-08T01:25:53;5.28;;;2.88;;
37049;SDS011;22958;51.232;6.826;2023-08-08T01:28:23;8.93;;;2.83;;
37049;SDS011;22958;51.232;6.826;2023-08-08T01:30:49;7.50;;;2.95;;
37049;SDS011;22958;51.232;6.826;2023-08-08T01:33:15;12.50;;;3.15;;
37049;SDS011;22958;51.232;6.826;2023-08-08T01:35:43;10.37;;;2.70;;
37049;SDS011;22958;51.232;6.826;2023-08-08T01:40:58;9.45;;;3.08;;
37049;SDS011;22958;51.232;6.826;2023-08-08T01:43:25;8.02;;;3.22;;
37049;SDS011;22958;51.232;6.826;2023-08-08T01:48:17;9.48;;;3.30;;
37049;SDS011;22958;51.232;6.826;2023-08-08T01:50:43;11.27;;;3.17;;
37049;SDS011;22958;51.232;6.826;2023-08-08T01:53:09;11.33;;;3.30;;
37049;SDS011;22958;51.232;6.826;2023-08-08T01:55:34;6.73;;;2.60;;
37049;SDS011;22958;51.232;6.826;2023-08-08T01:58:00;8.87;;;2.90;;
37049;SDS011;22958;51.232;6.826;2023-08-08T02:00:25;10.90;;;3.00;;
37049;SDS011;22958;51.232;6.826;2023-08-08T02:02:51;15.87;;;3.20;;
37049;SDS011;22958;51.232;6.826;2023-08-08T02:05:16;8.57;;;3.03;;
37049;SDS011;22958;51.232;6.826;2023-08-08T02:07:42;13.80;;;3.20;;
37049;SDS011;22958;51.232;6.826;2023-08-08T02:10:08;7.23;;;2.50;;
37049;SDS011;22958;51.232;6.826;2023-08-08T02:12:33;8.90;;;2.60;;
37049;SDS011;22958;51.232;6.826;2023-08-08T02:14:59;11.23;;;3.20;;
37049;SDS011;22958;51.232;6.826;2023-08-08T02:17:25;7.47;;;3.03;;
37049;SDS011;22958;51.232;6.826;2023-08-08T02:19:51;10.10;;;2.92;;
37049;SDS011;22958;51.232;6.826;2023-08-08T02:22:17;9.10;;;2.83;;
37049;SDS011;22958;51.232;6.826;2023-08-08T02:24:43;9.63;;;2.55;;
37049;SDS011;22958;51.232;6.826;2023-08-08T02:27:08;6.50;;;2.60;;
37049;SDS011;22958;51.232;6.826;2023-08-08T02:29:34;7.53;;;2.67;;
37049;SDS011;22958;51.232;6.826;2023-08-08T02:32:00;11.00;;;3.00;;
37049;SDS011;22958;51.232;6.826;2023-08-08T02:34:25;12.40;;;2.93;;
37049;SDS011;22958;51.232;6.826;2023-08-08T02:36:51;11.20;;;2.97;;
37049;SDS011;22958;51.232;6.826;2023-08-08T02:39:17;12.87;;;3.00;;
37049;SDS011;22958;51.232;6.826;2023-08-08T02:41:42;7.40;;;2.70;;
37049;SDS011;22958;51.232;6.826;2023-08-08T02:44:08;6.97;;;2.67;;
37049;SDS011;22958;51.232;6.826;2023-08-08T02:46:34;6.20;;;2.43;;
37049;SDS011;22958;51.232;6.826;2023-08-08T02:48:59;13.53;;;2.90;;
37049;SDS011;22958;51.232;6.826;2023-08-08T02:51:25;9.57;;;2.97;;
37049;SDS011;22958;51.232;6.826;2023-08-08T02:53:50;7.63;;;2.93;;
37049;SDS011;22958;51.232;6.826;2023-08-08T02:56:16;13.00;;;3.47;;
37049;SDS011;22958;51.232;6.826;2023-08-08T02:58:41;7.47;;;3.00;;
37049;SDS011;22958;51.232;6.826;2023-08-08T03:01:07;7.13;;;2.63;;
37049;SDS011;22958;51.232;6.826;2023-08-08T03:03:32;9.00;;;3.10;;
37049;SDS011;22958;51.232;6.826;2023-08-08T03:05:58;8.57;;;2.97;;
37049;SDS011;22958;51.232;6.826;2023-08-08T03:08:23;6.67;;;2.70;;
37049;SDS011;22958;51.232;6.826;2023-08-08T03:10:49;11.43;;;4.13;;
37049;SDS011;22958;51.232;6.826;2023-08-08T03:13:14;10.77;;;2.67;;
37049;SDS011;22958;51.232;6.826;2023-08-08T03:15:40;9.30;;;2.20;;
37049;SDS011;22958;51.232;6.826;2023-08-08T03:18:05;13.87;;;3.77;;
37049;SDS011;22958;51.232;6.826;2023-08-08T03:20:31;11.50;;;2.97;;
37049;SDS011;22958;51.232;6.826;2023-08-08T03:22:56;10.43;;;2.90;;
37049;SDS011;22958;51.232;6.826;2023-08-08T03:25:22;12.17;;;2.70;;
37049;SDS011;22958;51.232;6.826;2023-08-08T03:27:48;14.27;;;3.57;;
37049;SDS011;22958;51.232;6.826;2023-08-08T03:30:13;5.10;;;2.60;;
37049;SDS011;22958;51.232;6.826;2023-08-08T03:32:39;8.97;;;3.17;;
37049;SDS011;22958;51.232;6.826;2023-08-08T03:35:05;8.90;;;2.97;;
37049;SDS011;22958;51.232;6.826;2023-08-08T03:37:31;8.40;;;2.77;;
37049;SDS011;22958;51.232;6.826;2023-08-08T03:39:57;7.67;;;2.53;;
37049;SDS011;22958;51.232;6.826;2023-08-08T03:42:22;11.33;;;2.67;;
37049;SDS011;22958;51.232;6.826;2023-08-08T03:44:48;13.13;;;3.80;;
37049;SDS011;22958;51.232;6.826;2023-08-08T03:47:13;12.70;;;3.53;;
37049;SDS011;22958;51.232;6.826;2023-08-08T03:49:39;9.40;;;3.00;;
37049;SDS011;22958;51.232;6.826;2023-08-08T03:52:05;9.40;;;2.80;;
37049;SDS011;22958;51.232;6.826;2023-08-08T03:54:31;16.53;;;3.27;;
37049;SDS011;22958;51.232;6.826;2023-08-08T03:56:56;10.43;;;3.30;;
37049;SDS011;22958;51.232;6.826;2023-08-08T03:59:22;10.67;;;3.70;;
37049;SDS011;22958;51.232;6.826;2023-08-08T04:01:47;17.10;;;3.40;;
37049;SDS011;22958;51.232;6.826;2023-08-08T04:04:13;14.45;;;4.03;;
37049;SDS011;22958;51.232;6.826;2023-08-08T04:06:39;17.17;;;4.30;;
37049;SDS011;22958;51.232;6.826;2023-08-08T04:09:04;12.30;;;3.77;;
37049;SDS011;22958;51.232;6.826;2023-08-08T04:11:30;10.20;;;3.63;;
37049;SDS011;22958;51.232;6.826;2023-08-08T04:13:56;14.27;;;4.03;;
37049;SDS011;22958;51.232;6.826;2023-08-08T04:16:21;10.97;;;4.30;;
37049;SDS011;22958;51.232;6.826;2023-08-08T04:18:47;17.90;;;4.33;;
37049;SDS011;22958;51.232;6.826;2023-08-08T04:21:12;21.53;;;3.90;;
37049;SDS011;22958;51.232;6.826;2023-08-08T04:23:38;12.90;;;4.10;;
37049;SDS011;22958;51.232;6.826;2023-08-08T04:26:03;13.10;;;3.53;;
37049;SDS011;22958;51.232;6.826;2023-08-08T04:28:29;15.13;;;4.40;;
37049;SDS011;22958;51.232;6.826;2023-08-08T04:30:54;18.73;;;4.13;;
37049;SDS011;22958;51.232;6.826;2023-08-08T04:33:20;13.07;;;4.20;;
37049;SDS011;22958;51.232;6.826;2023-08-08T04:35:45;12.77;;;4.10;;
37049;SDS011;22958;51.232;6.826;2023-08-08T04:40:39;15.52;;;4.50;;
37049;SDS011;22958;51.232;6.826;2023-08-08T04:43:04;18.03;;;4.30;;
37049;SDS011;22958;51.232;6.826;2023-08-08T04:45:30;21.00;;;4.30;;
37049;SDS011;22958;51.232;6.826;2023-08-08T04:47:55;16.00;;;4.50;;
37049;SDS011;22958;51.232;6.826;2023-08-08T04:50:21;13.60;;;4.70;;
37049;SDS011;22958;51.232;6.826;2023-08-08T04:52:46;18.83;;;5.23;;
37049;SDS011;22958;51.232;6.826;2023-08-08T04:55:12;20.07;;;5.50;;
37049;SDS011;22958;51.232;6.826;2023-08-08T04:57:37;20.77;;;5.30;;
37049;SDS011;22958;51.232;6.826;2023-08-08T05:00:03;16.70;;;4.07;;
37049;SDS011;22958;51.232;6.826;2023-08-08T05:02:33;15.35;;;4.53;;
37049;SDS011;22958;51.232;6.826;2023-08-08T05:04:59;23.23;;;5.22;;
37049;SDS011;22958;51.232;6.826;2023-08-08T05:07:25;15.05;;;5.05;;
37049;SDS011;22958;51.232;6.826;2023-08-08T05:09:51;19.75;;;4.60;;
37049;SDS011;22958;51.232;6.826;2023-08-08T05:12:17;19.87;;;5.43;;
37049;SDS011;22958;51.232;6.826;2023-08-08T05:14:42;23.53;;;4.77;;
37049;SDS011;22958;51.232;6.826;2023-08-08T05:17:08;16.83;;;4.93;;
37049;SDS011;22958;51.232;6.826;2023-08-08T05:19:33;26.43;;;5.30;;
37049;SDS011;22958;51.232;6.826;2023-08-08T05:21:59;18.43;;;4.87;;
37049;SDS011;22958;51.232;6.826;2023-08-08T05:24:25;15.10;;;5.50;;
37049;SDS011;22958;51.232;6.826;2023-08-08T05:26:50;21.13;;;6.13;;
37049;SDS011;22958;51.232;6.826;2023-08-08T05:29:16;21.90;;;5.70;;
37049;SDS011;22958;51.232;6.826;2023-08-08T05:31:41;19.23;;;6.30;;
37049;SDS011;22958;51.232;6.826;2023-08-08T05:34:07;29.37;;;5.90;;
37049;SDS011;22958;51.232;6.826;2023-08-08T05:36:32;27.00;;;5.87;;
37049;SDS011;22958;51.232;6.826;2023-08-08T05:38:58;19.90;;;4.93;;
37049;SDS011;22958;51.232;6.826;2023-08-08T05:41:23;26.83;;;6.50;;
37049;SDS011;22958;51.232;6.826;2023-08-08T05:43:49;18.83;;;5.77;;
37049;SDS011;22958;51.232;6.826;2023-08-08T05:46:15;17.13;;;6.30;;
37049;SDS011;22958;51.232;6.826;2023-08-08T05:48:40;28.27;;;6.57;;
37049;SDS011;22958;51.232;6.826;2023-08-08T05:51:06;26.13;;;5.93;;
37049;SDS011;22958;51.232;6.826;2023-08-08T05:53:32;21.73;;;6.93;;
37049;SDS011;22958;51.232;6.826;2023-08-08T05:55:57;18.73;;;6.10;;
37049;SDS011;22958;51.232;6.826;2023-08-08T05:58:23;21.13;;;6.93;;
37049;SDS011;22958;51.232;6.826;2023-08-08T06:00:49;21.83;;;6.77;;
37049;SDS011;22958;51.232;6.826;2023-08-08T06:03:15;26.73;;;7.95;;
37049;SDS011;22958;51.232;6.826;2023-08-08T06:05:40;22.80;;;6.77;;
37049;SDS011;22958;51.232;6.826;2023-08-08T06:08:06;22.07;;;7.63;;
37049;SDS011;22958;51.232;6.826;2023-08-08T06:10:36;26.60;;;8.48;;
37049;SDS011;22958;51.232;6.826;2023-08-08T06:13:02;21.37;;;6.83;;
37049;SDS011;22958;51.232;6.826;2023-08-08T06:15:27;23.10;;;7.07;;
37049;SDS011;22958;51.232;6.826;2023-08-08T06:17:53;33.90;;;8.13;;
37049;SDS011;22958;51.232;6.826;2023-08-08T06:20:18;22.60;;;6.87;;
37049;SDS011;22958;51.232;6.826;2023-08-08T06:22:44;14.90;;;6.57;;
37049;SDS011;22958;51.232;6.826;2023-08-08T06:25:10;15.97;;;5.27;;
37049;SDS011;22958;51.232;6.826;2023-08-08T06:27:36;18.42;;;6.10;;
37049;SDS011;22958;51.232;6.826;2023-08-08T06:30:01;24.77;;;6.53;;
37049;SDS011;22958;51.232;6.826;2023-08-08T06:32:28;20.90;;;5.53;;
37049;SDS011;22958;51.232;6.826;2023-08-08T06:34:53;18.10;;;4.87;;
37049;SDS011;22958;51.232;6.826;2023-08-08T06:37:20;27.83;;;5.50;;
37049;SDS011;22958;51.232;6.826;2023-08-08T06:39:45;18.50;;;5.80;;
37049;SDS011;22958;51.232;6.826;2023-08-08T06:42:11;23.47;;;6.63;;
37049;SDS011;22958;51.232;6.826;2023-08-08T06:44:45;17.50;;;5.33;;
37049;SDS011;22958;51.232;6.826;2023-08-08T06:47:11;27.15;;;6.55;;
37049;SDS011;22958;51.232;6.826;2023-08-08T06:49:37;22.60;;;6.93;;
37049;SDS011;22958;51.232;6.826;2023-08-08T06:52:04;25.42;;;6.80;;
37049;SDS011;22958;51.232;6.826;2023-08-08T06:54:30;18.77;;;6.50;;
37049;SDS011;22958;51.232;6.826;2023-08-08T06:56:56;19.60;;;5.60;;
37049;SDS011;22958;51.232;6.826;2023-08-08T06:59:22;21.20;;;5.40;;
37049;SDS011;22958;51.232;6.826;2023-08-08T07:01:48;16.45;;;6.15;;
37049;SDS011;22958;51.232;6.826;2023-08-08T07:04:14;16.38;;;5.38;;
37049;SDS011;22958;51.232;6.826;2023-08-08T07:06:39;21.90;;;5.80;;
37049;SDS011;22958;51.232;6.826;2023-08-08T07:09:05;23.80;;;5.83;;
37049;SDS011;22958;51.232;6.826;2023-08-08T07:11:33;34.05;;;6.40;;
37049;SDS011;22958;51.232;6.826;2023-08-08T07:13:59;32.00;;;6.37;;
37049;SDS011;22958;51.232;6.826;2023-08-08T07:16:25;19.60;;;5.40;;
37049;SDS011;22958;51.232;6.826;2023-08-08T07:18:50;23.17;;;5.50;;
37049;SDS011;22958;51.232;6.826;2023-08-08T07:21:15;23.60;;;5.63;;
37049;SDS011;22958;51.232;6.826;2023-08-08T07:23:41;23.97;;;5.93;;
37049;SDS011;22958;51.232;6.826;2023-08-08T07:26:06;18.40;;;5.13;;
37049;SDS011;22958;51.232;6.826;2023-08-08T07:28:32;28.07;;;6.13;;
37049;SDS011;22958;51.232;6.826;2023-08-08T07:30:58;20.80;;;4.90;;
37049;SDS011;22958;51.232;6.826;2023-08-08T07:33:23;15.20;;;4.93;;
37049;SDS011;22958;51.232;6.826;2023-08-08T07:35:49;15.13;;;4.87;;
37049;SDS011;22958;51.232;6.826;2023-08-08T07:38:14;15.40;;;5.30;;
37049;SDS011;22958;51.232;6.826;2023-08-08T07:40:40;17.38;;;4.72;;
37049;SDS011;22958;51.232;6.826;2023-08-08T07:43:06;13.07;;;4.10;;
37049;SDS011;22958;51.232;6.826;2023-08-08T07:45:32;14.50;;;5.40;;
37049;SDS011;22958;51.232;6.826;2023-08-08T07:47:57;16.33;;;5.40;;
37049;SDS011;22958;51.232;6.826;2023-08-08T07:50:23;19.13;;;4.77;;
37049;SDS011;22958;51.232;6.826;2023-08-08T07:52:49;13.13;;;4.20;;
37049;SDS011;22958;51.232;6.826;2023-08-08T07:55:14;14.68;;;4.47;;
37049;SDS011;22958;51.232;6.826;2023-08-08T07:57:40;16.77;;;4.30;;
37049;SDS011;22958;51.232;6.826;2023-08-08T08:00:06;21.83;;;4.60;;
37049;SDS011;22958;51.232;6.826;2023-08-08T08:02:39;18.33;;;5.00;;
37049;SDS011;22958;51.232;6.826;2023-08-08T08:05:07;17.40;;;5.25;;
37049;SDS011;22958;51.232;6.826;2023-08-08T08:07:34;23.77;;;4.20;;
37049;SDS011;22958;51.232;6.826;2023-08-08T08:10:01;21.10;;;4.70;;
37049;SDS011;22958;51.232;6.826;2023-08-08T08:12:27;16.45;;;4.53;;
37049;SDS011;22958;51.232;6.826;2023-08-08T08:14:54;16.88;;;4.78;;
37049;SDS011;22958;51.232;6.826;2023-08-08T08:17:20;19.97;;;4.47;;
37049;SDS011;22958;51.232;6.826;2023-08-08T08:19:45;13.37;;;4.40;;
37049;SDS011;22958;51.232;6.826;2023-08-08T08:22:11;12.70;;;4.17;;
37049;SDS011;22958;51.232;6.826;2023-08-08T08:24:36;15.27;;;4.03;;
37049;SDS011;22958;51.232;6.826;2023-08-08T08:27:02;18.10;;;4.43;;
37049;SDS011;22958;51.232;6.826;2023-08-08T08:29:27;22.73;;;5.13;;
37049;SDS011;22958;51.232;6.826;2023-08-08T08:31:53;18.07;;;4.30;;
37049;SDS011;22958;51.232;6.826;2023-08-08T08:34:18;14.07;;;4.33;;
37049;SDS011;22958;51.232;6.826;2023-08-08T08:36:44;15.93;;;4.87;;
37049;SDS011;22958;51.232;6.826;2023-08-08T08:39:09;14.90;;;4.53;;
37049;SDS011;22958;51.232;6.826;2023-08-08T08:41:35;15.37;;;4.90;;
37049;SDS011;22958;51.232;6.826;2023-08-08T08:44:02;19.75;;;4.50;;
37049;SDS011;22958;51.232;6.826;2023-08-08T08:48:55;13.48;;;3.50;;
37049;SDS011;22958;51.232;6.826;2023-08-08T08:51:23;16.40;;;4.28;;
37049;SDS011;22958;51.232;6.826;2023-08-08T08:53:49;13.95;;;3.63;;
37049;SDS011;22958;51.232;6.826;2023-08-08T08:56:15;15.40;;;3.73;;
37049;SDS011;22958;51.232;6.826;2023-08-08T08:58:41;19.15;;;3.95;;
37049;SDS011;22958;51.232;6.826;2023-08-08T09:01:07;18.60;;;3.93;;
37049;SDS011;22958;51.232;6.826;2023-08-08T09:03:34;21.70;;;5.50;;
37049;SDS011;22958;51.232;6.826;2023-08-08T09:05:59;17.83;;;4.80;;
37049;SDS011;22958;51.232;6.826;2023-08-08T09:08:26;20.20;;;4.88;;
37049;SDS011;22958;51.232;6.826;2023-08-08T09:10:51;14.67;;;4.50;;
37049;SDS011;22958;51.232;6.826;2023-08-08T09:13:17;16.70;;;5.47;;
37049;SDS011;22958;51.232;6.826;2023-08-08T09:15:42;26.23;;;5.07;;
37049;SDS011;22958;51.232;6.826;2023-08-08T09:18:11;16.27;;;4.25;;
37049;SDS011;22958;51.232;6.826;2023-08-08T09:20:37;28.83;;;5.13;;
37049;SDS011;22958;51.232;6.826;2023-08-08T09:23:02;17.10;;;4.60;;
37049;SDS011;22958;51.232;6.826;2023-08-08T09:25:28;24.97;;;4.67;;
37049;SDS011;22958;51.232;6.826;2023-08-08T09:27:54;19.03;;;4.43;;
37049;SDS011;22958;51.232;6.826;2023-08-08T09:30:20;15.00;;;3.92;;
37049;SDS011;22958;51.232;6.826;2023-08-08T09:32:46;9.20;;;3.78;;
37049;SDS011;22958;51.232;6.826;2023-08-08T09:35:12;15.00;;;4.20;;
37049;SDS011;22958;51.232;6.826;2023-08-08T09:37:38;15.18;;;4.28;;
37049;SDS011;22958;51.232;6.826;2023-08-08T09:40:04;13.63;;;3.85;;
37049;SDS011;22958;51.232;6.826;2023-08-08T09:42:32;13.63;;;3.60;;
37049;SDS011;22958;51.232;6.826;2023-08-08T09:44:58;12.52;;;3.95;;
37049;SDS011;22958;51.232;6.826;2023-08-08T09:47:24;17.45;;;3.75;;
37049;SDS011;22958;51.232;6.826;2023-08-08T09:49:55;17.10;;;4.53;;
37049;SDS011;22958;51.232;6.826;2023-08-08T09:52:24;20.63;;;3.80;;
37049;SDS011;22958;51.232;6.826;2023-08-08T09:54:52;15.77;;;3.83;;
37049;SDS011;22958;51.232;6.826;2023-08-08T09:57:18;15.00;;;3.60;;
37049;SDS011;22958;51.232;6.826;2023-08-08T09:59:43;15.60;;;3.47;;
37049;SDS011;22958;51.232;6.826;2023-08-08T10:02:13;15.68;;;3.95;;
37049;SDS011;22958;51.232;6.826;2023-08-08T10:04:44;15.80;;;4.35;;
37049;SDS011;22958;51.232;6.826;2023-08-08T10:07:13;18.95;;;3.30;;
37049;SDS011;22958;51.232;6.826;2023-08-08T10:09:39;19.77;;;6.18;;
37049;SDS011;22958;51.232;6.826;2023-08-08T10:12:06;15.20;;;3.78;;
37049;SDS011;22958;51.232;6.826;2023-08-08T10:14:34;11.40;;;3.08;;
37049;SDS011;22958;51.232;6.826;2023-08-08T10:17:05;8.45;;;2.78;;
37049;SDS011;22958;51.232;6.826;2023-08-08T10:19:31;17.13;;;3.60;;
37049;SDS011;22958;51.232;6.826;2023-08-08T10:21:58;11.32;;;3.15;;
37049;SDS011;22958;51.232;6.826;2023-08-08T10:24:25;12.65;;;3.33;;
37049;SDS011;22958;51.232;6.826;2023-08-08T10:27:01;17.57;;;3.30;;
37049;SDS011;22958;51.232;6.826;2023-08-08T10:29:29;15.95;;;4.18;;
37049;SDS011;22958;51.232;6.826;2023-08-08T10:32:01;13.10;;;3.72;;
37049;SDS011;22958;51.232;6.826;2023-08-08T10:34:41;14.70;;;3.83;;
37049;SDS011;22958;51.232;6.826;2023-08-08T10:37:14;13.93;;;3.53;;
37049;SDS011;22958;51.232;6.826;2023-08-08T10:39:55;13.80;;;3.92;;
37049;SDS011;22958;51.232;6.826;2023-08-08T10:42:23;21.50;;;4.10;;
37049;SDS011;22958;51.232;6.826;2023-08-08T10:44:54;16.35;;;4.18;;
37049;SDS011;22958;51.232;6.826;2023-08-08T10:47:30;10.60;;;3.22;;
37049;SDS011;22958;51.232;6.826;2023-08-08T10:52:50;14.45;;;4.10;;
37049;SDS011;22958;51.232;6.826;2023-08-08T10:55:19;14.52;;;4.53;;
37049;SDS011;22958;51.232;6.826;2023-08-08T11:00:30;12.45;;;4.38;;
37049;SDS011;22958;51.232;6.826;2023-08-08T11:02:58;11.15;;;3.30;;
37049;SDS011;22958;51.232;6.826;2023-08-08T11:05:25;12.15;;;4.35;;
37049;SDS011;22958;51.232;6.826;2023-08-08T11:07:53;12.57;;;3.95;;
37049;SDS011;22958;51.232;6.826;2023-08-08T11:10:20;11.27;;;3.75;;
37049;SDS011;22958;51.232;6.826;2023-08-08T11:15:39;15.02;;;4.50;;
37049;SDS011;22958;51.232;6.826;2023-08-08T11:18:05;14.03;;;4.53;;
37049;SDS011;22958;51.232;6.826;2023-08-08T11:20:31;13.27;;;4.10;;
37049;SDS011;22958;51.232;6.826;2023-08-08T11:22:57;19.50;;;4.30;;
37049;SDS011;22958;51.232;6.826;2023-08-08T11:25:27;14.63;;;3.63;;
37049;SDS011;22958;51.232;6.826;2023-08-08T11:27:54;6.88;;;3.67;;
37049;SDS011;22958;51.232;6.826;2023-08-08T11:32:47;18.48;;;4.20;;
37049;SDS011;22958;51.232;6.826;2023-08-08T11:35:21;8.27;;;3.60;;
37049;SDS011;22958;51.232;6.826;2023-08-08T11:37:48;12.88;;;3.28;;
37049;SDS011;22958;51.232;6.826;2023-08-08T11:40:16;15.82;;;3.60;;
37049;SDS011;22958;51.232;6.826;2023-08-08T11:42:42;24.42;;;4.22;;
37049;SDS011;22958;51.232;6.826;2023-08-08T11:45:10;15.57;;;3.78;;
37049;SDS011;22958;51.232;6.826;2023-08-08T11:47:41;20.25;;;3.55;;
37049;SDS011;22958;51.232;6.826;2023-08-08T11:50:07;7.15;;;2.80;;
37049;SDS011;22958;51.232;6.826;2023-08-08T11:52:35;12.35;;;3.35;;
37049;SDS011;22958;51.232;6.826;2023-08-08T11:55:05;10.32;;;3.60;;
37049;SDS011;22958;51.232;6.826;2023-08-08T11:57:31;11.82;;;3.97;;
37049;SDS011;22958;51.232;6.826;2023-08-08T12:02:26;12.82;;;3.40;;
37049;SDS011;22958;51.232;6.826;2023-08-08T12:04:52;15.65;;;4.28;;
37049;SDS011;22958;51.232;6.826;2023-08-08T12:07:18;12.18;;;3.90;;
37049;SDS011;22958;51.232;6.826;2023-08-08T12:09:46;10.30;;;3.30;;
37049;SDS011;22958;51.232;6.826;2023-08-08T12:12:12;15.63;;;3.70;;
37049;SDS011;22958;51.232;6.826;2023-08-08T12:17:05;12.13;;;3.05;;
37049;SDS011;22958;51.232;6.826;2023-08-08T12:19:30;14.90;;;4.10;;
37049;SDS011;22958;51.232;6.826;2023-08-08T12:21:56;13.20;;;3.27;;
37049;SDS011;22958;51.232;6.826;2023-08-08T12:24:22;12.07;;;3.40;;
37049;SDS011;22958;51.232;6.826;2023-08-08T12:26:47;17.00;;;3.23;;
37049;SDS011;22958;51.232;6.826;2023-08-08T12:29:13;9.60;;;3.10;;
37049;SDS011;22958;51.232;6.826;2023-08-08T12:34:05;10.85;;;2.40;;
37049;SDS011;22958;51.232;6.826;2023-08-08T12:36:31;11.07;;;2.77;;
37049;SDS011;22958;51.232;6.826;2023-08-08T12:38:57;15.03;;;2.70;;
37049;SDS011;22958;51.232;6.826;2023-08-08T12:41:23;5.13;;;2.50;;
37049;SDS011;22958;51.232;6.826;2023-08-08T12:43:50;5.75;;;2.58;;
37049;SDS011;22958;51.232;6.826;2023-08-08T12:46:15;7.50;;;2.08;;
37049;SDS011;22958;51.232;6.826;2023-08-08T12:48:41;7.63;;;2.57;;
37049;SDS011;22958;51.232;6.826;2023-08-08T12:51:08;26.20;;;3.65;;
37049;SDS011;22958;51.232;6.826;2023-08-08T12:53:33;21.03;;;3.23;;
37049;SDS011;22958;51.232;6.826;2023-08-08T12:55:59;10.95;;;2.50;;
37049;SDS011;22958;51.232;6.826;2023-08-08T12:58:25;10.25;;;2.60;;
37049;SDS011;22958;51.232;6.826;2023-08-08T13:00:51;11.80;;;2.80;;
37049;SDS011;22958;51.232;6.826;2023-08-08T13:03:16;9.10;;;2.90;;
37049;SDS011;22958;51.232;6.826;2023-08-08T13:05:42;10.87;;;2.90;;
37049;SDS011;22958;51.232;6.826;2023-08-08T13:08:08;10.50;;;2.87;;
37049;SDS011;22958;51.232;6.826;2023-08-08T13:10:33;10.20;;;3.05;;
37049;SDS011;22958;51.232;6.826;2023-08-08T13:13:00;12.45;;;2.88;;
37049;SDS011;22958;51.232;6.826;2023-08-08T13:15:26;6.40;;;2.53;;
37049;SDS011;22958;51.232;6.826;2023-08-08T13:17:51;8.87;;;2.93;;
37049;SDS011;22958;51.232;6.826;2023-08-08T13:20:17;11.40;;;3.17;;
37049;SDS011;22958;51.232;6.826;2023-08-08T13:22:42;9.17;;;2.90;;
37049;SDS011;22958;51.232;6.826;2023-08-08T13:25:08;18.67;;;3.40;;
37049;SDS011;22958;51.232;6.826;2023-08-08T13:27:33;11.47;;;2.83;;
37049;SDS011;22958;51.232;6.826;2023-08-08T13:29:59;7.97;;;2.93;;
37049;SDS011;22958;51.232;6.826;2023-08-08T13:32:24;18.30;;;3.57;;
37049;SDS011;22958;51.232;6.826;2023-08-08T13:34:50;13.50;;;3.23;;
37049;SDS011;22958;51.232;6.826;2023-08-08T13:37:15;15.17;;;3.07;;
37049;SDS011;22958;51.232;6.826;2023-08-08T13:39:41;7.13;;;2.60;;
37049;SDS011;22958;51.232;6.826;2023-08-08T13:42:08;5.85;;;2.75;;
37049;SDS011;22958;51.232;6.826;2023-08-08T13:44:34;13.60;;;3.40;;
37049;SDS011;22958;51.232;6.826;2023-08-08T13:46:59;7.43;;;2.60;;
37049;SDS011;22958;51.232;6.826;2023-08-08T13:49:25;8.33;;;3.37;;
37049;SDS011;22958;51.232;6.826;2023-08-08T13:51:52;10.13;;;2.75;;
37049;SDS011;22958;51.232;6.826;2023-08-08T13:54:20;14.00;;;3.30;;
37049;SDS011;22958;51.232;6.826;2023-08-08T13:56:46;12.57;;;2.70;;
37049;SDS011;22958;51.232;6.826;2023-08-08T13:59:11;8.32;;;2.85;;
37049;SDS011;22958;51.232;6.826;2023-08-08T14:01:37;9.80;;;3.50;;
37049;SDS011;22958;51.232;6.826;2023-08-08T14:04:03;13.70;;;3.00;;
37049;SDS011;22958;51.232;6.826;2023-08-08T14:06:29;12.13;;;2.90;;
37049;SDS011;22958;51.232;6.826;2023-08-08T14:08:55;6.65;;;2.60;;
37049;SDS011;22958;51.232;6.826;2023-08-08T14:11:21;11.97;;;2.60;;
37049;SDS011;22958;51.232;6.826;2023-08-08T14:13:47;7.65;;;2.72;;
37049;SDS011;22958;51.232;6.826;2023-08-08T14:16:12;8.27;;;2.43;;
37049;SDS011;22958;51.232;6.826;2023-08-08T14:18:38;8.83;;;2.87;;
37049;SDS011;22958;51.232;6.826;2023-08-08T14:21:04;8.50;;;2.83;;
37049;SDS011;22958;51.232;6.826;2023-08-08T14:23:30;12.05;;;3.30;;
37049;SDS011;22958;51.232;6.826;2023-08-08T14:25:56;5.35;;;2.08;;
37049;SDS011;22958;51.232;6.826;2023-08-08T14:28:22;9.40;;;2.67;;
37049;SDS011;22958;51.232;6.826;2023-08-08T14:30:47;10.83;;;3.10;;
37049;SDS011;22958;51.232;6.826;2023-08-08T14:33:14;10.38;;;3.28;;
37049;SDS011;22958;51.232;6.826;2023-08-08T14:35:40;11.18;;;3.13;;
37049;SDS011;22958;51.232;6.826;2023-08-08T14:38:06;7.93;;;2.97;;
37049;SDS011;22958;51.232;6.826;2023-08-08T14:40:31;10.07;;;2.33;;
37049;SDS011;22958;51.232;6.826;2023-08-08T14:42:58;13.68;;;2.60;;
37049;SDS011;22958;51.232;6.826;2023-08-08T14:45:24;11.57;;;2.40;;
37049;SDS011;22958;51.232;6.826;2023-08-08T14:47:49;10.20;;;2.33;;
37049;SDS011;22958;51.232;6.826;2023-08-08T14:50:15;10.50;;;2.50;;
37049;SDS011;22958;51.232;6.826;2023-08-08T14:52:41;10.93;;;2.97;;
37049;SDS011;22958;51.232;6.826;2023-08-08T14:55:07;7.63;;;2.73;;
37049;SDS011;22958;51.232;6.826;2023-08-08T14:57:33;12.23;;;2.80;;
37049;SDS011;22958;51.232;6.826;2023-08-08T14:59:59;13.10;;;2.73;;